This is the latest recevied weather packets stored in our database for station/object DK4DAX-2. If no packets are shown the sender has not sent any weather packets the latest 10 day(s).
| Time | Temp. | Humidity | Pressure | Rain* | Wind** | Luminosity | Snow |
|---|---|---|---|---|---|---|---|
| 1777857303 | 13.33° C | 82% | 1005.3 hPa | 0 mm | - | - | - |
| 1777856403 | 13.33° C | 82% | 1005 hPa | 0 mm | - | - | - |
| 1777855503 | 13.33° C | 82% | 1005.1 hPa | 0 mm | - | - | - |
| 1777854604 | 13.33° C | 82% | 1005.1 hPa | 0 mm | - | - | - |
| 1777853703 | 13.33° C | 82% | 1005 hPa | 0 mm | - | - | - |
| 1777852804 | 13.89° C | 82% | 1005 hPa | 0 mm | - | - | - |
| 1777851904 | 14.44° C | 79% | 1005.3 hPa | 0 mm | - | - | - |
| 1777851003 | 14.44° C | 79% | 1005.3 hPa | 0 mm | - | - | - |
| 1777850103 | 14.44° C | 77% | 1005.1 hPa | 0 mm | - | - | - |
| 1777849201 | 15° C | 74% | 1005 hPa | 0 mm | - | - | - |
| 1777848300 | 15.56° C | 71% | 1004.9 hPa | 0 mm | - | - | - |
| 1777847401 | 16.11° C | 71% | 1005.2 hPa | 0 mm | - | - | - |
| 1777846501 | 16.11° C | 70% | 1005.2 hPa | 0 mm | - | - | - |
| 1777845601 | 16.11° C | 69% | 1005 hPa | 0 mm | - | - | - |
| 1777844701 | 16.11° C | 70% | 1004.9 hPa | 0 mm | - | - | - |
| 1777843801 | 15.56° C | 73% | 1005 hPa | 0 mm | - | - | - |
| 1777842900 | 15.56° C | 73% | 1004.9 hPa | 0 mm | - | - | - |
| 1777842001 | 16.11° C | 70% | 1005.1 hPa | 0 mm | - | - | - |
| 1777841101 | 16.67° C | 66% | 1005.1 hPa | 0 mm | - | - | - |
| 1777840201 | 16.67° C | 63% | 1004.9 hPa | 0 mm | - | - | - |
| 1777839300 | 17.22° C | 62% | 1004.9 hPa | 0 mm | - | - | - |
| 1777838401 | 17.22° C | 62% | 1004.9 hPa | 0 mm | - | - | - |
| 1777837500 | 17.22° C | 63% | 1004.8 hPa | 0 mm | - | - | - |
| 1777836600 | 17.78° C | 64% | 1004.7 hPa | 0 mm | - | - | - |
| 1777835701 | 17.78° C | 69% | 1004.9 hPa | 0 mm | - | - | - |
* Rain latest hour (hover to see other rain measurements)
** Current wind speed in m/s (hover to see current wind gust speed)